createdAt,value
2023-03-14T04:36:26.595Z,9.20
2023-03-14T04:39:05.404Z,9.20
2023-03-14T04:41:32.056Z,9.30
2023-03-14T04:43:58.831Z,8.90
2023-03-14T04:46:25.528Z,9.20
2023-03-14T04:48:52.232Z,9.20
2023-03-14T04:51:18.892Z,9.20
2023-03-14T04:53:45.484Z,9.00
2023-03-14T04:56:13.913Z,8.90
2023-03-14T04:58:40.651Z,9.00
2023-03-14T05:01:07.515Z,9.10
2023-03-14T05:03:34.227Z,9.00
2023-03-14T05:06:01.805Z,8.70
2023-03-14T05:08:28.524Z,8.70
2023-03-14T05:10:55.912Z,9.40
2023-03-14T05:13:26.081Z,8.60
2023-03-14T05:15:52.790Z,8.70
2023-03-14T05:18:19.442Z,8.70
2023-03-14T05:20:46.118Z,8.60
2023-03-14T05:23:13.145Z,8.70
2023-03-14T05:25:39.784Z,8.70
2023-03-14T05:28:06.440Z,8.50
2023-03-14T05:30:34.691Z,8.40
2023-03-14T05:33:01.407Z,8.70
2023-03-14T05:35:28.125Z,9.40
2023-03-14T05:37:54.800Z,8.70
2023-03-14T05:40:21.497Z,8.70
2023-03-14T05:42:48.107Z,8.70
2023-03-14T05:45:14.765Z,8.70
2023-03-14T05:47:41.419Z,8.80
2023-03-14T05:50:08.345Z,9.50
2023-03-14T05:52:34.962Z,8.70
2023-03-14T05:55:01.593Z,8.50
2023-03-14T05:57:28.208Z,8.40
2023-03-14T05:59:54.853Z,8.50
2023-03-14T06:02:21.515Z,8.30
2023-03-14T06:04:48.247Z,8.40
2023-03-14T06:07:14.855Z,8.10
2023-03-14T06:09:41.540Z,8.20
2023-03-14T06:12:08.319Z,7.20
2023-03-14T06:14:34.964Z,8.70
2023-03-14T06:17:01.640Z,8.20
2023-03-14T06:19:28.306Z,8.40
2023-03-14T06:21:54.919Z,8.80
2023-03-14T06:24:21.579Z,8.40
2023-03-14T06:26:48.149Z,8.50
2023-03-14T06:29:14.793Z,8.60
2023-03-14T06:31:41.488Z,8.50
2023-03-14T06:34:08.138Z,8.90
2023-03-14T06:36:35.989Z,8.90
2023-03-14T06:39:02.635Z,10.00
2023-03-14T06:41:29.284Z,8.40
2023-03-14T06:43:56.685Z,8.80
2023-03-14T06:46:23.483Z,8.80
2023-03-14T06:48:50.190Z,9.10
2023-03-14T06:51:16.820Z,8.80
2023-03-14T06:53:43.459Z,8.80
2023-03-14T06:56:10.152Z,9.00
2023-03-14T06:58:36.791Z,9.10
2023-03-14T07:01:03.570Z,9.10
2023-03-14T07:03:30.416Z,9.20
2023-03-14T07:05:57.145Z,9.50
2023-03-14T07:08:23.882Z,8.70
2023-03-14T07:10:50.437Z,10.20
2023-03-14T07:13:17.121Z,9.40
2023-03-14T07:15:43.825Z,9.60
2023-03-14T07:18:10.458Z,9.40
2023-03-14T07:20:37.149Z,9.50
2023-03-14T07:23:04.303Z,9.40
2023-03-14T07:25:30.994Z,9.90
2023-03-14T07:27:57.636Z,9.40
2023-03-14T07:30:24.468Z,9.70
2023-03-14T07:32:51.875Z,10.20
2023-03-14T07:35:19.324Z,9.70
2023-03-14T07:37:45.916Z,10.60
2023-03-14T07:40:15.898Z,9.60
2023-03-14T07:42:42.988Z,9.70
2023-03-14T07:45:10.751Z,9.90
2023-03-14T07:47:37.396Z,10.00
2023-03-14T07:50:05.299Z,10.70
2023-03-14T07:52:31.964Z,10.00
2023-03-14T07:54:58.579Z,9.90
2023-03-14T07:57:25.352Z,10.00
2023-03-14T07:59:52.279Z,10.10
2023-03-14T08:02:21.250Z,10.10
2023-03-14T08:04:47.941Z,10.20
2023-03-14T08:07:14.581Z,10.30
2023-03-14T08:09:41.377Z,10.30
2023-03-14T08:12:08.089Z,11.30
2023-03-14T08:14:34.926Z,11.10
2023-03-14T08:17:01.689Z,11.00
2023-03-14T08:19:28.484Z,10.60
2023-03-14T08:21:55.337Z,10.50
2023-03-14T08:24:21.935Z,10.40
2023-03-14T08:26:48.780Z,10.40
2023-03-14T08:29:15.366Z,10.30
2023-03-14T08:31:42.075Z,11.00
2023-03-14T08:34:08.777Z,10.40
2023-03-14T08:36:35.512Z,10.60
2023-03-14T08:39:07.171Z,10.50
2023-03-14T08:41:34.109Z,10.40
2023-03-14T08:44:00.771Z,10.30
2023-03-14T08:46:27.435Z,10.20
2023-03-14T08:48:54.062Z,10.40
2023-03-14T08:51:20.741Z,10.70
2023-03-14T08:53:47.314Z,10.40
2023-03-14T08:56:14.010Z,10.40
2023-03-14T08:58:42.247Z,10.30
2023-03-14T09:01:09.345Z,10.30
2023-03-14T09:03:35.942Z,10.30
2023-03-14T09:06:04.565Z,10.30
2023-03-14T09:08:31.390Z,10.00
2023-03-14T09:10:58.286Z,10.30
2023-03-14T09:13:24.919Z,10.20
2023-03-14T09:15:55.162Z,10.40
2023-03-14T09:18:21.978Z,10.40
2023-03-14T09:20:48.614Z,10.30
2023-03-14T09:23:15.458Z,10.30
2023-03-14T09:25:46.431Z,10.40
2023-03-14T09:28:13.233Z,10.50
2023-03-14T09:30:40.261Z,10.60
2023-03-14T09:33:06.896Z,11.30
2023-03-14T09:35:34.853Z,10.70
2023-03-14T09:38:01.608Z,10.70
2023-03-14T09:40:31.786Z,11.60
2023-03-14T09:42:59.832Z,10.90
2023-03-14T09:45:27.763Z,10.80
2023-03-14T09:47:59.415Z,11.30
2023-03-14T09:50:27.127Z,11.20
2023-03-14T09:52:57.071Z,11.40
2023-03-14T09:55:23.964Z,11.90
2023-03-14T09:57:51.717Z,11.40
2023-03-14T10:00:19.681Z,11.30
2023-03-14T10:02:50.813Z,11.40
2023-03-14T10:05:19.453Z,12.00
2023-03-14T10:07:46.097Z,11.40
2023-03-14T10:10:15.552Z,11.20
2023-03-14T10:12:43.163Z,11.30
2023-03-14T10:15:11.832Z,11.20
2023-03-14T10:17:43.122Z,11.60
2023-03-14T10:20:34.094Z,11.60
2023-03-14T10:23:05.409Z,11.80
2023-03-14T10:25:38.601Z,12.00
2023-03-14T10:28:23.707Z,12.20
2023-03-14T10:30:50.401Z,11.70
2023-03-14T10:33:27.941Z,13.20
2023-03-14T10:35:56.551Z,12.40
2023-03-14T10:38:25.469Z,12.20
2023-03-14T10:40:54.109Z,12.60
2023-03-14T10:43:25.884Z,12.40
2023-03-14T10:45:53.880Z,11.90
2023-03-14T10:48:24.903Z,11.30
2023-03-14T10:50:54.776Z,12.00
2023-03-14T10:53:21.435Z,12.20
2023-03-14T10:55:48.645Z,13.00
2023-03-14T10:58:29.949Z,13.00
2023-03-14T11:01:00.654Z,12.10
2023-03-14T11:03:29.140Z,11.90
2023-03-14T11:06:07.635Z,12.40
2023-03-14T11:08:48.873Z,12.70
2023-03-14T11:11:18.491Z,12.30
2023-03-14T11:13:53.177Z,12.50
2023-03-14T11:16:38.757Z,12.40
2023-03-14T11:19:24.303Z,13.50
2023-03-14T11:22:01.904Z,13.20
2023-03-14T11:24:46.986Z,12.60
2023-03-14T11:27:19.784Z,13.20
2023-03-14T11:32:19.717Z,14.40
2023-03-14T11:34:53.337Z,14.90
2023-03-14T11:37:22.443Z,14.80
2023-03-14T11:39:57.035Z,15.40
2023-03-14T11:42:24.918Z,14.60
2023-03-14T11:44:51.750Z,13.90
2023-03-14T11:47:22.434Z,15.50
2023-03-14T11:49:53.327Z,14.30
2023-03-14T11:52:23.422Z,12.80
2023-03-14T11:54:53.237Z,13.40
2023-03-14T11:57:21.270Z,14.10
2023-03-14T11:59:59.032Z,15.20
2023-03-14T12:02:25.684Z,13.80
2023-03-14T12:04:57.677Z,13.10
2023-03-14T12:07:30.920Z,13.30
2023-03-14T12:09:57.855Z,13.60
2023-03-14T12:12:26.474Z,12.60
2023-03-14T12:14:54.670Z,13.20
2023-03-14T12:17:24.318Z,13.10
2023-03-14T12:20:07.177Z,12.20
2023-03-14T12:22:43.040Z,12.20
2023-03-14T12:25:17.704Z,12.20
2023-03-14T12:27:50.389Z,12.10
2023-03-14T12:30:21.698Z,12.20
2023-03-14T12:33:14.908Z,10.60
2023-03-14T12:35:42.777Z,11.90
2023-03-14T12:38:15.796Z,11.50
2023-03-14T12:40:58.304Z,12.50
2023-03-14T12:43:26.463Z,11.60
2023-03-14T12:46:08.476Z,10.70
2023-03-14T12:48:35.265Z,10.80
2023-03-14T12:51:03.990Z,10.40
2023-03-14T12:53:33.658Z,10.30
2023-03-14T12:56:19.389Z,10.80
2023-03-14T12:58:54.627Z,10.80
2023-03-14T13:01:21.661Z,12.10
2023-03-14T13:03:51.792Z,11.60
2023-03-14T13:06:37.165Z,11.50
2023-03-14T13:12:15.339Z,10.20
2023-03-14T13:15:20.006Z,9.60
2023-03-14T13:17:50.646Z,9.90
2023-03-14T13:20:37.946Z,12.50
2023-03-14T13:23:22.353Z,9.40
2023-03-14T13:26:04.550Z,10.80
2023-03-14T13:33:05.736Z,9.30
2023-03-14T13:35:53.126Z,9.30
2023-03-14T13:42:00.009Z,9.40
2023-03-14T13:44:45.299Z,10.00
2023-03-14T13:54:01.243Z,10.10
2023-03-14T13:56:30.167Z,9.30
2023-03-14T13:58:57.440Z,10.10
2023-03-14T14:01:44.653Z,9.90
2023-03-14T14:07:01.804Z,9.40
2023-03-14T14:09:32.269Z,10.10
2023-03-14T14:12:32.437Z,10.40
2023-03-14T14:15:12.418Z,8.30
2023-03-14T14:18:17.470Z,9.30
2023-03-14T14:21:07.754Z,9.30
2023-03-14T14:26:21.184Z,10.90
2023-03-14T14:28:50.434Z,9.70
2023-03-14T14:31:26.536Z,9.60
2023-03-14T14:33:56.992Z,11.00
2023-03-14T14:36:32.766Z,10.00
2023-03-14T14:39:04.547Z,9.90
2023-03-14T14:41:32.712Z,9.50
2023-03-14T14:44:11.847Z,10.00
2023-03-14T14:46:43.465Z,10.00
2023-03-14T14:49:27.724Z,10.00
2023-03-14T14:52:28.928Z,8.30
2023-03-14T14:55:01.715Z,8.80
2023-03-14T14:57:41.417Z,8.50
2023-03-14T15:00:13.646Z,9.10
2023-03-14T15:02:49.720Z,8.50
2023-03-14T15:05:24.266Z,9.00
2023-03-14T15:07:51.543Z,9.20
2023-03-14T15:10:27.800Z,7.30
2023-03-14T15:12:55.051Z,8.50
2023-03-14T15:15:22.153Z,8.10
2023-03-14T15:17:51.988Z,7.20
2023-03-14T15:20:25.576Z,8.50
2023-03-14T15:22:52.421Z,8.50
2023-03-14T15:25:51.471Z,8.40
2023-03-14T15:28:28.392Z,9.50
2023-03-14T15:30:58.531Z,8.40
2023-03-14T15:33:30.257Z,8.40
2023-03-14T15:35:58.365Z,8.80
2023-03-14T15:38:25.259Z,8.10
2023-03-14T15:40:52.489Z,8.00
2023-03-14T15:43:22.451Z,7.30
2023-03-14T15:45:49.235Z,7.90
2023-03-14T15:48:23.371Z,7.60
2023-03-14T15:50:51.939Z,7.90
2023-03-14T15:53:18.932Z,7.80
2023-03-14T15:55:45.612Z,7.40
2023-03-14T15:58:21.548Z,8.10
2023-03-14T16:00:54.475Z,7.20
2023-03-14T16:03:35.779Z,6.20
2023-03-14T16:06:06.136Z,7.60
2023-03-14T16:08:35.681Z,7.20
2023-03-14T16:14:31.112Z,7.50
2023-03-14T16:17:16.816Z,7.40
2023-03-14T16:19:49.492Z,6.90
2023-03-14T16:22:16.233Z,7.70
2023-03-14T16:24:45.517Z,6.90
2023-03-14T16:27:13.523Z,6.90
2023-03-14T16:29:43.952Z,6.90
2023-03-14T16:32:11.488Z,5.60
2023-03-14T16:34:41.958Z,7.40
2023-03-14T16:37:20.861Z,6.60
2023-03-14T16:40:13.031Z,6.80
2023-03-14T16:45:53.004Z,5.10
2023-03-14T17:05:02.818Z,5.60
2023-03-14T17:07:38.446Z,5.10
2023-03-14T17:10:14.435Z,5.20
2023-03-14T17:18:33.429Z,5.50
2023-03-14T17:23:48.803Z,5.30
2023-03-14T17:29:22.033Z,5.30
2023-03-14T17:31:49.027Z,4.50
2023-03-14T17:34:24.103Z,5.80
2023-03-14T17:36:50.921Z,5.30
2023-03-14T17:39:42.706Z,4.30
2023-03-14T17:44:41.140Z,5.20
2023-03-14T17:47:15.656Z,5.30
2023-03-14T17:50:01.770Z,5.70
2023-03-14T17:52:40.907Z,5.30
2023-03-14T17:55:24.891Z,5.70
2023-03-14T17:57:55.835Z,5.20
2023-03-14T18:09:57.964Z,4.60
2023-03-14T18:12:29.010Z,4.00
2023-03-14T18:15:29.665Z,5.10
2023-03-14T18:17:56.390Z,5.10
2023-03-14T18:27:58.493Z,4.90
2023-03-14T18:30:25.453Z,4.20
2023-03-14T18:32:52.278Z,5.40
2023-03-14T18:42:10.301Z,4.40
2023-03-14T18:44:38.864Z,5.50
2023-03-14T18:47:05.617Z,4.20
2023-03-14T18:56:15.045Z,4.50
2023-03-14T19:18:56.816Z,3.80
2023-03-14T19:22:01.925Z,5.70
2023-03-14T19:24:45.763Z,3.80
2023-03-14T19:27:29.368Z,5.20
2023-03-14T19:30:26.166Z,5.10
